Terminal Aerodrome Forecast
Issued by NWS

Home | Current Version | Previous Version | Graphics & Text | Print | Product List | Glossary On
Versions: 1 2 3 4 5 6 7 8 9 10 11 12 13 14 15 16 17 18
351
FTUS43 KICT 292320
TAFSLN
TAF
KSLN 292320Z 3000/3024 05018G26KT P6SM -SHRA VCTS BKN007 OVC012CB
     FM300200 03018G26KT P6SM VCSH OVC007
     FM300900 32013KT 4SM BR OVC008
     FM301600 29016KT P6SM SCT040
     FM302100 26014KT P6SM BKN040=

USA.gov is the U.S. government's official web portal to all federal, state and local government web resources and services.